Conway, Washington
Current Conditions -  °F | °C
As of 10:56 PM on Tuesday 21 Oct 2014 (Local Time) from KNUW Reporting Station
Overcast Overcast  
Wind Chill: 61°   Ceiling: 18000
Heat Index: 61°   Visibility: 10mi
Dew Point: 48°   Wind: 29mph
Humidity: 62%   Direction: 140°SE
Pressure: 29.69"   Gusts: 37mph
Location:  48.34°N, 122.35°W
Report Text: KNUW 220556Z 14025G32KT 10SM SCT033 SCT120 OVC180 16/09 A2969 RMK AO2 PK WND 14037/0508 SLP058 T01610089 10167 20161 58021 $
Loading
Personal Weather Stations






























Interactive Weather Map New forecast layout! Learn more

10-Day Weather Forecast

Advertisements
Track Severe Weather on mobile